createdAt,value
2018-03-28T00:00:50.000Z,26.8
2018-03-28T00:02:50.000Z,26.8
2018-03-28T00:03:50.000Z,26.8
2018-03-28T00:05:50.000Z,26.8
2018-03-28T00:06:50.000Z,26.8
2018-03-28T00:08:50.000Z,26.8
2018-03-28T00:10:50.000Z,26.7
2018-03-28T00:11:50.000Z,26.7
2018-03-28T00:13:50.000Z,26.8
2018-03-28T00:15:50.000Z,26.8
2018-03-28T00:17:50.000Z,26.7
2018-03-28T00:18:50.000Z,26.6
2018-03-28T00:20:50.000Z,26.6
2018-03-28T00:22:50.000Z,26.5
2018-03-28T00:24:50.000Z,26.5
2018-03-28T00:26:50.000Z,26.6
2018-03-28T00:27:50.000Z,26.6
2018-03-28T00:29:50.000Z,26.7
2018-03-28T00:31:50.000Z,26.7
2018-03-28T00:33:50.000Z,26.7
2018-03-28T00:34:50.000Z,26.7
2018-03-28T00:35:50.000Z,26.7
2018-03-28T00:36:50.000Z,26.7
2018-03-28T00:38:50.000Z,26.8
2018-03-28T00:39:50.000Z,26.8
2018-03-28T00:40:50.000Z,26.8
2018-03-28T00:42:50.000Z,26.9
2018-03-28T00:44:50.000Z,26.9
2018-03-28T00:46:50.000Z,26.8
2018-03-28T00:48:50.000Z,26.7
2018-03-28T00:49:50.000Z,26.7
2018-03-28T00:51:50.000Z,26.8
2018-03-28T00:53:50.000Z,26.7
2018-03-28T00:54:50.000Z,26.7
2018-03-28T00:56:50.000Z,26.7
2018-03-28T00:57:50.000Z,26.7
2018-03-28T00:59:50.000Z,26.7
2018-03-28T01:00:50.000Z,26.7
2018-03-28T01:02:50.000Z,26.6
2018-03-28T01:03:50.000Z,26.6
2018-03-28T01:05:50.000Z,26.6
2018-03-28T01:07:50.000Z,26.6
2018-03-28T01:08:50.000Z,26.6
2018-03-28T01:10:50.000Z,26.7
2018-03-28T01:11:50.000Z,26.7
2018-03-28T01:12:50.000Z,26.8
2018-03-28T01:14:50.000Z,26.8
2018-03-28T01:16:50.000Z,26.8
2018-03-28T01:18:50.000Z,26.8
2018-03-28T01:19:50.000Z,26.8
2018-03-28T01:21:50.000Z,26.8
2018-03-28T01:23:35.000Z,26.8
2018-03-28T01:24:50.000Z,26.7
2018-03-28T01:25:50.000Z,26.7
2018-03-28T01:27:50.000Z,26.7
2018-03-28T01:28:50.000Z,26.8
2018-03-28T01:30:50.000Z,26.8
2018-03-28T01:32:50.000Z,26.8
2018-03-28T01:34:50.000Z,26.7
2018-03-28T01:36:50.000Z,26.7
2018-03-28T01:38:50.000Z,26.6
2018-03-28T01:40:50.000Z,26.6
2018-03-28T01:42:50.000Z,26.6
2018-03-28T01:44:50.000Z,26.6
2018-03-28T01:46:50.000Z,26.5
2018-03-28T01:48:50.000Z,26.4
2018-03-28T01:49:50.000Z,26.4
2018-03-28T01:51:50.000Z,26.5
2018-03-28T01:53:50.000Z,26.5
2018-03-28T01:55:50.000Z,26.5
2018-03-28T01:56:50.000Z,26.5
2018-03-28T01:58:50.000Z,26.6
2018-03-28T02:00:50.000Z,26.6
2018-03-28T02:01:50.000Z,26.7
2018-03-28T02:03:50.000Z,26.7
2018-03-28T02:05:50.000Z,26.6
2018-03-28T02:07:35.000Z,26.6
2018-03-28T02:08:50.000Z,26.6
2018-03-28T02:09:50.000Z,26.6
2018-03-28T02:10:50.000Z,26.7
2018-03-28T02:12:35.000Z,26.7
2018-03-28T02:13:50.000Z,26.7
2018-03-28T02:15:50.000Z,26.7
2018-03-28T02:16:50.000Z,26.7
2018-03-28T02:18:50.000Z,26.8
2018-03-28T02:20:50.000Z,26.7
2018-03-28T02:21:50.000Z,26.8
2018-03-28T02:23:50.000Z,26.8
2018-03-28T02:25:50.000Z,26.7
2018-03-28T02:26:50.000Z,26.7
2018-03-28T02:28:50.000Z,26.8
2018-03-28T02:29:50.000Z,26.8
2018-03-28T02:30:50.000Z,26.8
2018-03-28T02:32:50.000Z,26.8
2018-03-28T02:33:50.000Z,26.8
2018-03-28T02:34:50.000Z,26.8
2018-03-28T02:35:50.000Z,26.9
2018-03-28T02:37:50.000Z,26.9
2018-03-28T02:39:50.000Z,26.8
2018-03-28T02:41:50.000Z,26.8
2018-03-28T02:42:50.000Z,26.7
2018-03-28T02:44:50.000Z,26.8
2018-03-28T02:45:50.000Z,26.8
2018-03-28T02:46:50.000Z,26.8
2018-03-28T02:47:50.000Z,26.9
2018-03-28T02:48:50.000Z,26.9
2018-03-28T02:50:50.000Z,26.9
2018-03-28T02:52:50.000Z,26.8
2018-03-28T02:54:50.000Z,26.8
2018-03-28T02:55:50.000Z,26.8
2018-03-28T02:56:50.000Z,26.8
2018-03-28T02:57:50.000Z,26.9
2018-03-28T02:58:50.000Z,26.9
2018-03-28T02:59:50.000Z,26.9
2018-03-28T03:01:50.000Z,27
2018-03-28T03:02:50.000Z,27
2018-03-28T03:04:35.000Z,27
2018-03-28T03:05:50.000Z,26.9
2018-03-28T03:07:50.000Z,26.9
2018-03-28T03:08:50.000Z,26.9
2018-03-28T03:09:50.000Z,26.9
2018-03-28T03:11:50.000Z,26.9
2018-03-28T03:13:50.000Z,26.9
2018-03-28T03:15:50.000Z,26.8
2018-03-28T03:16:50.000Z,26.7
2018-03-28T03:17:50.000Z,26.8
2018-03-28T03:19:50.000Z,26.7
2018-03-28T03:21:50.000Z,26.8
2018-03-28T03:23:50.000Z,26.8
2018-03-28T03:24:50.000Z,26.8
2018-03-28T03:26:50.000Z,26.8
2018-03-28T03:28:50.000Z,26.7
2018-03-28T03:30:50.000Z,26.6
2018-03-28T03:31:50.000Z,26.5
2018-03-28T03:32:50.000Z,26.6
2018-03-28T03:34:50.000Z,26.7
2018-03-28T03:35:50.000Z,26.7
2018-03-28T03:37:50.000Z,26.8
2018-03-28T03:39:50.000Z,26.7
2018-03-28T03:40:50.000Z,26.8
2018-03-28T03:42:50.000Z,26.7
2018-03-28T03:43:50.000Z,26.7
2018-03-28T03:45:50.000Z,26.8
2018-03-28T03:47:50.000Z,26.7
2018-03-28T03:48:50.000Z,26.8
2018-03-28T03:49:50.000Z,26.8
2018-03-28T03:50:50.000Z,26.8
2018-03-28T03:51:50.000Z,26.9
2018-03-28T03:53:50.000Z,26.9
2018-03-28T03:54:50.000Z,26.9
2018-03-28T03:56:50.000Z,26.9
2018-03-28T03:58:50.000Z,26.9
2018-03-28T04:00:50.000Z,26.9
2018-03-28T04:02:50.000Z,26.8
2018-03-28T04:04:50.000Z,26.7
2018-03-28T04:05:50.000Z,26.7
2018-03-28T04:07:50.000Z,26.7
2018-03-28T04:09:50.000Z,26.7
2018-03-28T04:11:51.000Z,26.7
2018-03-28T04:13:51.000Z,26.7
2018-03-28T04:14:51.000Z,26.7
2018-03-28T04:16:51.000Z,26.7
2018-03-28T04:18:50.000Z,26.6
2018-03-28T04:19:51.000Z,26.6
2018-03-28T04:21:50.000Z,26.7
2018-03-28T04:22:51.000Z,26.7
2018-03-28T04:23:51.000Z,26.8
2018-03-28T04:25:51.000Z,26.8
2018-03-28T04:26:51.000Z,26.9
2018-03-28T04:27:51.000Z,26.9
2018-03-28T04:29:51.000Z,26.9
2018-03-28T04:30:51.000Z,26.9
2018-03-28T04:31:51.000Z,26.9
2018-03-28T04:33:51.000Z,26.9
2018-03-28T04:35:51.000Z,26.8
2018-03-28T04:37:35.000Z,26.8
2018-03-28T04:38:51.000Z,26.7
2018-03-28T04:39:51.000Z,26.7
2018-03-28T04:41:51.000Z,26.7
2018-03-28T04:42:51.000Z,26.8
2018-03-28T04:44:51.000Z,26.8
2018-03-28T04:45:51.000Z,26.9
2018-03-28T04:46:51.000Z,26.9
2018-03-28T04:48:51.000Z,27
2018-03-28T04:50:35.000Z,27
2018-03-28T04:51:51.000Z,26.9
2018-03-28T04:53:51.000Z,26.9
2018-03-28T04:55:51.000Z,26.9
2018-03-28T04:56:51.000Z,26.9
2018-03-28T04:58:51.000Z,26.9
2018-03-28T04:59:51.000Z,26.9
2018-03-28T05:01:50.000Z,27
2018-03-28T05:02:50.000Z,27
2018-03-28T05:04:50.000Z,27
2018-03-28T05:06:35.000Z,27
2018-03-28T05:07:50.000Z,26.9
2018-03-28T05:09:50.000Z,26.9
2018-03-28T05:10:50.000Z,26.9
2018-03-28T05:12:50.000Z,26.9
2018-03-28T05:14:50.000Z,26.9
2018-03-28T05:16:50.000Z,26.9
2018-03-28T05:17:50.000Z,26.9
2018-03-28T05:19:50.000Z,26.9
2018-03-28T05:21:35.000Z,26.9
2018-03-28T05:22:50.000Z,26.9
2018-03-28T05:24:50.000Z,26.9
2018-03-28T05:25:50.000Z,26.9
2018-03-28T05:26:50.000Z,26.9
2018-03-28T05:27:50.000Z,26.9
2018-03-28T05:29:50.000Z,27
2018-03-28T05:30:50.000Z,27
2018-03-28T05:32:50.000Z,27
2018-03-28T05:34:50.000Z,27
2018-03-28T05:36:50.000Z,26.9
2018-03-28T05:37:50.000Z,26.9
2018-03-28T05:39:50.000Z,26.9
2018-03-28T05:40:50.000Z,26.9
2018-03-28T05:42:50.000Z,27
2018-03-28T05:44:50.000Z,27
2018-03-28T05:46:50.000Z,27
2018-03-28T05:48:50.000Z,26.9
2018-03-28T05:50:50.000Z,26.8
2018-03-28T05:51:50.000Z,26.8
2018-03-28T05:52:50.000Z,26.9
2018-03-28T05:54:50.000Z,26.9
2018-03-28T05:55:50.000Z,26.9
2018-03-28T05:57:50.000Z,26.9
2018-03-28T05:59:35.000Z,27
2018-03-28T06:00:50.000Z,26.9
2018-03-28T06:02:50.000Z,26.9
2018-03-28T06:03:51.000Z,26.9
2018-03-28T06:05:51.000Z,27
2018-03-28T06:06:51.000Z,27
2018-03-28T06:07:51.000Z,27
2018-03-28T06:09:51.000Z,27
2018-03-28T06:10:51.000Z,27
2018-03-28T06:11:51.000Z,27
2018-03-28T06:13:51.000Z,27
2018-03-28T06:15:51.000Z,27
2018-03-28T06:16:51.000Z,27
2018-03-28T06:17:51.000Z,27.1
2018-03-28T06:19:51.000Z,27.1
2018-03-28T06:20:51.000Z,27
2018-03-28T06:22:51.000Z,27
2018-03-28T06:23:51.000Z,27
2018-03-28T06:24:51.000Z,27.1
2018-03-28T06:26:35.000Z,27.1
2018-03-28T06:27:51.000Z,27.1
2018-03-28T06:29:51.000Z,27.1
2018-03-28T06:31:51.000Z,27.1
2018-03-28T06:33:51.000Z,27
2018-03-28T06:34:51.000Z,27
2018-03-28T06:36:51.000Z,27.1
2018-03-28T06:38:35.000Z,27.2
2018-03-28T06:39:51.000Z,27.1
2018-03-28T06:40:51.000Z,27.2
2018-03-28T06:41:51.000Z,27.2
2018-03-28T06:43:51.000Z,27.3
2018-03-28T06:45:51.000Z,27.3
2018-03-28T06:47:51.000Z,27.3
2018-03-28T06:48:51.000Z,27.3
2018-03-28T06:49:51.000Z,27.3
2018-03-28T06:50:51.000Z,27.3
2018-03-28T06:52:51.000Z,27.5
2018-03-28T06:54:51.000Z,27.4
2018-03-28T06:55:51.000Z,27.4
2018-03-28T06:56:51.000Z,27.5
2018-03-28T06:58:51.000Z,27.6
2018-03-28T06:59:51.000Z,27.6
2018-03-28T07:01:51.000Z,27.7
2018-03-28T07:02:51.000Z,27.7
2018-03-28T07:04:51.000Z,27.7
2018-03-28T07:05:51.000Z,27.7
2018-03-28T07:07:50.000Z,27.8
2018-03-28T07:08:50.000Z,27.8
2018-03-28T07:09:50.000Z,27.9
2018-03-28T07:10:50.000Z,27.9
2018-03-28T07:11:50.000Z,28
2018-03-28T07:13:50.000Z,28
2018-03-28T07:14:50.000Z,28
2018-03-28T07:15:50.000Z,28
2018-03-28T07:16:50.000Z,28
2018-03-28T07:18:35.000Z,28.1
2018-03-28T07:19:50.000Z,28
2018-03-28T07:20:50.000Z,28
2018-03-28T07:22:50.000Z,28
2018-03-28T07:23:50.000Z,28
2018-03-28T07:25:50.000Z,28
2018-03-28T07:27:50.000Z,28
2018-03-28T07:28:50.000Z,28
2018-03-28T07:30:50.000Z,28
2018-03-28T07:32:50.000Z,28
2018-03-28T07:33:50.000Z,28
2018-03-28T07:35:50.000Z,28.1
2018-03-28T07:37:50.000Z,28.1
2018-03-28T07:38:50.000Z,28.1
2018-03-28T07:39:50.000Z,28.1
2018-03-28T07:41:50.000Z,28.1
2018-03-28T07:43:50.000Z,28.1
2018-03-28T07:45:35.000Z,28.1
2018-03-28T07:46:50.000Z,28.1
2018-03-28T07:47:50.000Z,28.2
2018-03-28T07:49:50.000Z,28.3
2018-03-28T07:50:50.000Z,28.3
2018-03-28T07:51:50.000Z,28.4
2018-03-28T07:52:50.000Z,28.4
2018-03-28T07:53:50.000Z,28.5
2018-03-28T07:54:50.000Z,28.6
2018-03-28T07:55:50.000Z,28.6
2018-03-28T07:57:50.000Z,28.7
2018-03-28T07:59:50.000Z,28.7
2018-03-28T08:00:50.000Z,28.7
2018-03-28T08:01:50.000Z,28.8
2018-03-28T08:03:50.000Z,28.9
2018-03-28T08:04:50.000Z,28.9
2018-03-28T08:06:50.000Z,29
2018-03-28T08:07:50.000Z,29
2018-03-28T08:09:50.000Z,29
2018-03-28T08:10:50.000Z,29
2018-03-28T08:11:51.000Z,29.1
2018-03-28T08:12:51.000Z,29.1
2018-03-28T08:14:51.000Z,29.2
2018-03-28T08:16:51.000Z,29.3
2018-03-28T08:17:51.000Z,29.3
2018-03-28T08:18:51.000Z,29.4
2018-03-28T08:20:51.000Z,29.4
2018-03-28T08:21:51.000Z,29.4
2018-03-28T08:23:36.000Z,29.5
2018-03-28T08:24:51.000Z,29.5
2018-03-28T08:25:51.000Z,29.5
2018-03-28T08:26:51.000Z,29.6
2018-03-28T08:27:51.000Z,29.6
2018-03-28T08:29:51.000Z,29.7
2018-03-28T08:31:51.000Z,29.6
2018-03-28T08:33:51.000Z,29.5
2018-03-28T08:35:51.000Z,29.4
2018-03-28T08:36:51.000Z,29.3
2018-03-28T08:38:51.000Z,29.3
2018-03-28T08:40:51.000Z,29.3
2018-03-28T08:41:51.000Z,29.3
2018-03-28T08:43:51.000Z,29.3
2018-03-28T08:45:36.000Z,29.3
2018-03-28T08:46:51.000Z,29.2
2018-03-28T08:48:36.000Z,29.3
2018-03-28T08:49:51.000Z,29.2
2018-03-28T08:51:51.000Z,29.2
2018-03-28T08:53:51.000Z,29.2
2018-03-28T08:55:51.000Z,29.2
2018-03-28T08:56:51.000Z,29.2
2018-03-28T08:58:51.000Z,29.3
2018-03-28T09:00:51.000Z,29.3
2018-03-28T09:01:51.000Z,29.3
2018-03-28T09:03:51.000Z,29.3
2018-03-28T09:04:51.000Z,29.4
2018-03-28T09:06:51.000Z,29.5
2018-03-28T09:08:36.000Z,29.6
2018-03-28T09:09:51.000Z,29.6
2018-03-28T09:10:51.000Z,29.7
2018-03-28T09:12:51.000Z,29.9
2018-03-28T09:13:51.000Z,30
2018-03-28T09:14:51.000Z,30.1
2018-03-28T09:16:51.000Z,30.3
2018-03-28T09:18:51.000Z,30.4
2018-03-28T09:20:51.000Z,30.5
2018-03-28T09:21:51.000Z,30.5
2018-03-28T09:23:51.000Z,30.6
2018-03-28T09:25:51.000Z,30.7
2018-03-28T09:26:51.000Z,30.7
2018-03-28T09:27:51.000Z,30.8
2018-03-28T09:29:51.000Z,30.8
2018-03-28T09:30:51.000Z,30.8
2018-03-28T09:32:35.000Z,30.9
2018-03-28T09:33:51.000Z,30.9
2018-03-28T09:34:51.000Z,30.8
2018-03-28T09:36:51.000Z,30.7
2018-03-28T09:37:51.000Z,30.7
2018-03-28T09:38:51.000Z,30.7
2018-03-28T09:39:51.000Z,30.7
2018-03-28T09:40:51.000Z,30.7
2018-03-28T09:42:51.000Z,30.6
2018-03-28T09:44:51.000Z,30.6
2018-03-28T09:46:35.000Z,30.5
2018-03-28T09:47:51.000Z,30.5
2018-03-28T09:49:51.000Z,30.5
2018-03-28T09:51:51.000Z,30.4
2018-03-28T09:56:51.000Z,29.9
2018-03-28T09:58:37.000Z,29.8
2018-03-28T10:00:37.000Z,29.9
2018-03-28T10:02:37.000Z,29.9
2018-03-28T10:03:37.000Z,30
2018-03-28T10:05:37.000Z,30.1
2018-03-28T10:07:37.000Z,30.1
2018-03-28T10:08:37.000Z,30.1
2018-03-28T10:10:37.000Z,30.2
2018-03-28T10:12:37.000Z,30.1
2018-03-28T10:14:21.000Z,30.1
2018-03-28T10:15:37.000Z,30.1
2018-03-28T10:17:37.000Z,30
2018-03-28T10:18:36.000Z,30
2018-03-28T10:20:36.000Z,30.1
2018-03-28T10:21:36.000Z,30.1
2018-03-28T10:23:36.000Z,30.1
2018-03-28T10:25:36.000Z,30.1
2018-03-28T10:26:36.000Z,30.1
2018-03-28T10:28:36.000Z,30.1
2018-03-28T10:29:36.000Z,30.1
2018-03-28T10:30:36.000Z,30.1
2018-03-28T10:32:36.000Z,29.4
2018-03-28T10:34:36.000Z,28.7
2018-03-28T10:36:36.000Z,28.1
2018-03-28T10:38:36.000Z,27.7
2018-03-28T10:40:36.000Z,27.4
2018-03-28T10:41:36.000Z,27.2
2018-03-28T10:43:36.000Z,27
2018-03-28T10:44:36.000Z,27
2018-03-28T10:45:36.000Z,27
2018-03-28T10:47:36.000Z,26.9
2018-03-28T10:49:36.000Z,26.7
2018-03-28T10:51:36.000Z,26.5
2018-03-28T10:53:36.000Z,26.2
2018-03-28T10:54:36.000Z,26.2
2018-03-28T10:56:36.000Z,26.1
2018-03-28T10:58:36.000Z,26.1
2018-03-28T11:00:36.000Z,26.1
2018-03-28T11:02:36.000Z,26.1
2018-03-28T11:03:36.000Z,26.1
2018-03-28T11:04:36.000Z,26.1
2018-03-28T11:05:36.000Z,26.2
2018-03-28T11:07:21.000Z,26.3
2018-03-28T11:08:36.000Z,26.3
2018-03-28T11:10:36.000Z,26.2
2018-03-28T11:12:36.000Z,26
2018-03-28T11:14:36.000Z,25.8
2018-03-28T11:15:36.000Z,25.8
2018-03-28T11:17:36.000Z,25.7
2018-03-28T11:18:36.000Z,25.7
2018-03-28T11:19:36.000Z,25.7
2018-03-28T11:21:36.000Z,25.6
2018-03-28T11:23:37.000Z,25.4
2018-03-28T11:24:37.000Z,25.3
2018-03-28T11:26:37.000Z,25.1
2018-03-28T11:28:37.000Z,25
2018-03-28T11:30:37.000Z,24.8
2018-03-28T11:31:37.000Z,24.7
2018-03-28T11:33:37.000Z,24.7
2018-03-28T11:34:37.000Z,24.7
2018-03-28T11:36:37.000Z,24.6
2018-03-28T11:37:37.000Z,24.6
2018-03-28T11:39:37.000Z,24.5
2018-03-28T11:40:37.000Z,24.5
2018-03-28T11:42:37.000Z,24.5
2018-03-28T11:44:37.000Z,24.4
2018-03-28T11:45:37.000Z,24.3
2018-03-28T11:47:37.000Z,24.2
2018-03-28T11:48:37.000Z,24.2
2018-03-28T11:50:37.000Z,24.1
2018-03-28T11:51:37.000Z,24.1
2018-03-28T11:52:37.000Z,24.1
2018-03-28T11:54:37.000Z,24.1
2018-03-28T11:56:37.000Z,24.2
2018-03-28T11:58:37.000Z,24.1
2018-03-28T11:59:37.000Z,24.1
2018-03-28T12:00:37.000Z,24.2
2018-03-28T12:02:37.000Z,24.1
2018-03-28T12:03:37.000Z,24.1
2018-03-28T12:04:37.000Z,24.1
2018-03-28T12:06:37.000Z,24.2
2018-03-28T12:07:37.000Z,24.2
2018-03-28T12:09:37.000Z,24.2
2018-03-28T12:10:37.000Z,24.2
2018-03-28T12:11:37.000Z,24.2
2018-03-28T12:12:37.000Z,24.2
2018-03-28T12:13:37.000Z,24.2
2018-03-28T12:15:37.000Z,24.3
2018-03-28T12:16:37.000Z,24.3
2018-03-28T12:17:37.000Z,24.3
2018-03-28T12:19:37.000Z,24.3
2018-03-28T12:21:37.000Z,24.3
2018-03-28T12:22:37.000Z,24.3
2018-03-28T12:24:22.000Z,24.3
2018-03-28T12:25:37.000Z,24.2
2018-03-28T12:26:37.000Z,24.2
2018-03-28T12:28:37.000Z,24.2
2018-03-28T12:30:37.000Z,24.1
2018-03-28T12:32:37.000Z,24
2018-03-28T12:34:37.000Z,24
2018-03-28T12:35:37.000Z,24
2018-03-28T12:37:37.000Z,23.9
2018-03-28T12:39:21.000Z,23.9
2018-03-28T12:40:37.000Z,23.8
2018-03-28T12:41:37.000Z,23.8
2018-03-28T12:42:37.000Z,23.9
2018-03-28T12:43:37.000Z,23.9
2018-03-28T12:45:37.000Z,23.9
2018-03-28T12:46:37.000Z,23.9
2018-03-28T12:48:37.000Z,23.9
2018-03-28T12:49:37.000Z,23.9
2018-03-28T12:51:37.000Z,23.8
2018-03-28T12:52:37.000Z,23.8
2018-03-28T12:54:37.000Z,23.8
2018-03-28T12:56:37.000Z,23.7
2018-03-28T12:57:37.000Z,23.7
2018-03-28T12:59:21.000Z,23.7
2018-03-28T13:00:37.000Z,23.6
2018-03-28T13:02:37.000Z,23.6
2018-03-28T13:04:37.000Z,23.7
2018-03-28T13:06:37.000Z,24.1
2018-03-28T13:08:37.000Z,24.6
2018-03-28T13:10:37.000Z,25
2018-03-28T13:12:37.000Z,25.2
2018-03-28T13:14:37.000Z,25.5
2018-03-28T13:16:37.000Z,25.7
2018-03-28T13:17:37.000Z,25.8
2018-03-28T13:19:37.000Z,26.1
2018-03-28T13:21:37.000Z,26.3
2018-03-28T13:23:37.000Z,26.4
2018-03-28T13:24:37.000Z,26.5
2018-03-28T13:26:37.000Z,26.7
2018-03-28T13:28:37.000Z,26.7
2018-03-28T13:29:36.000Z,26.7
2018-03-28T13:31:36.000Z,26.8
2018-03-28T13:33:36.000Z,26.9
2018-03-28T13:35:36.000Z,26.9
2018-03-28T13:37:36.000Z,26.9
2018-03-28T13:38:36.000Z,27
2018-03-28T13:39:36.000Z,27
2018-03-28T13:41:36.000Z,27
2018-03-28T13:43:36.000Z,27.1
2018-03-28T13:45:36.000Z,27.1
2018-03-28T13:47:21.000Z,27.1
2018-03-28T13:48:36.000Z,27.1
2018-03-28T13:49:36.000Z,27.2
2018-03-28T13:51:36.000Z,27.3
2018-03-28T13:53:36.000Z,27.3
2018-03-28T13:54:36.000Z,27.3
2018-03-28T13:56:36.000Z,27.4
2018-03-28T13:57:36.000Z,27.5
2018-03-28T13:59:21.000Z,27.5
2018-03-28T14:00:36.000Z,27.5
2018-03-28T14:02:36.000Z,27.5
2018-03-28T14:04:36.000Z,27.5
2018-03-28T14:05:36.000Z,27.5
2018-03-28T14:07:36.000Z,27.5
2018-03-28T14:08:36.000Z,27.5
2018-03-28T14:10:36.000Z,27.6
2018-03-28T14:12:36.000Z,27.6
2018-03-28T14:13:36.000Z,27.7
2018-03-28T14:14:36.000Z,27.7
2018-03-28T14:15:36.000Z,27.8
2018-03-28T14:16:36.000Z,27.9
2018-03-28T14:17:36.000Z,28
2018-03-28T14:19:36.000Z,28.1
2018-03-28T14:20:36.000Z,28.1
2018-03-28T14:22:36.000Z,28.1
2018-03-28T14:23:36.000Z,28.1
2018-03-28T14:24:36.000Z,28.1
2018-03-28T14:25:36.000Z,28.2
2018-03-28T14:27:36.000Z,28.2
2018-03-28T14:29:36.000Z,28.1
2018-03-28T14:30:36.000Z,28.1
2018-03-28T14:32:36.000Z,28
2018-03-28T14:34:36.000Z,27.9
2018-03-28T14:36:36.000Z,27.9
2018-03-28T14:37:36.000Z,27.9
2018-03-28T14:39:36.000Z,27.9
2018-03-28T14:41:36.000Z,27.9
2018-03-28T14:43:36.000Z,27.8
2018-03-28T14:44:36.000Z,27.8
2018-03-28T14:46:36.000Z,27.9
2018-03-28T14:48:36.000Z,28
2018-03-28T14:49:36.000Z,28
2018-03-28T14:51:36.000Z,28
2018-03-28T14:52:36.000Z,28.1
2018-03-28T14:53:36.000Z,28.1
2018-03-28T14:54:36.000Z,28.2
2018-03-28T14:56:21.000Z,28.3
2018-03-28T14:57:36.000Z,28.2
2018-03-28T14:59:36.000Z,28.1
2018-03-28T15:00:36.000Z,28.1
2018-03-28T15:01:36.000Z,28.1
2018-03-28T15:03:36.000Z,28.1
2018-03-28T15:04:36.000Z,28.1
2018-03-28T15:06:36.000Z,28.1
2018-03-28T15:08:36.000Z,28.1
2018-03-28T15:10:36.000Z,28
2018-03-28T15:12:36.000Z,27.9
2018-03-28T15:13:36.000Z,27.9
2018-03-28T15:14:36.000Z,27.9
2018-03-28T15:15:36.000Z,28
2018-03-28T15:16:36.000Z,28
2018-03-28T15:17:36.000Z,28.1
2018-03-28T15:18:36.000Z,28.2
2018-03-28T15:20:36.000Z,28.2
2018-03-28T15:21:36.000Z,28.2
2018-03-28T15:23:36.000Z,28.2
2018-03-28T15:24:36.000Z,28.2
2018-03-28T15:26:36.000Z,28.1
2018-03-28T15:27:36.000Z,28.1
2018-03-28T15:29:36.000Z,28.2
2018-03-28T15:31:36.000Z,28.1
2018-03-28T15:33:36.000Z,28.1
2018-03-28T15:35:36.000Z,28
2018-03-28T15:37:36.000Z,28
2018-03-28T15:38:36.000Z,28
2018-03-28T15:39:36.000Z,28
2018-03-28T15:40:36.000Z,28
2018-03-28T15:42:36.000Z,28.1
2018-03-28T15:44:36.000Z,28.1
2018-03-28T15:45:36.000Z,28.1
2018-03-28T15:46:36.000Z,28.1
2018-03-28T15:48:36.000Z,28.2
2018-03-28T15:50:36.000Z,28.1
2018-03-28T15:51:36.000Z,28.1
2018-03-28T15:52:36.000Z,28.1
2018-03-28T15:54:36.000Z,28.2
2018-03-28T15:56:21.000Z,28.1
2018-03-28T15:57:36.000Z,28.1
2018-03-28T15:59:36.000Z,28.1
2018-03-28T16:00:36.000Z,28.1
2018-03-28T16:02:36.000Z,28.1
2018-03-28T16:04:36.000Z,28.1
2018-03-28T16:06:36.000Z,28.1
2018-03-28T16:08:21.000Z,28
2018-03-28T16:09:36.000Z,28
2018-03-28T16:10:36.000Z,28
2018-03-28T16:12:36.000Z,28.1
2018-03-28T16:13:36.000Z,28.1
2018-03-28T16:15:36.000Z,28.1
2018-03-28T16:17:21.000Z,28.1
2018-03-28T16:18:36.000Z,28.1
2018-03-28T16:19:36.000Z,28.1
2018-03-28T16:21:36.000Z,28.1
2018-03-28T16:22:36.000Z,28.1
2018-03-28T16:24:36.000Z,28.1
2018-03-28T16:26:36.000Z,28.1
2018-03-28T16:28:36.000Z,28
2018-03-28T16:29:36.000Z,28
2018-03-28T16:31:36.000Z,28
2018-03-28T16:32:36.000Z,28
2018-03-28T16:33:36.000Z,28.1
2018-03-28T16:34:36.000Z,28.1
2018-03-28T16:35:36.000Z,28.1
2018-03-28T16:36:36.000Z,28.2
2018-03-28T16:38:36.000Z,28.2
2018-03-28T16:40:37.000Z,28.1
2018-03-28T16:42:37.000Z,28
2018-03-28T16:44:37.000Z,28
2018-03-28T16:45:37.000Z,27.9
2018-03-28T16:47:37.000Z,27.9
2018-03-28T16:49:37.000Z,27.9
2018-03-28T16:51:37.000Z,27.9
2018-03-28T16:53:37.000Z,27.9
2018-03-28T16:54:37.000Z,27.9
2018-03-28T16:55:37.000Z,28
2018-03-28T16:57:37.000Z,28
2018-03-28T16:58:37.000Z,28
2018-03-28T16:59:37.000Z,28.1
2018-03-28T17:01:37.000Z,28.2
2018-03-28T17:02:37.000Z,28.2
2018-03-28T17:04:37.000Z,28.1
2018-03-28T17:06:37.000Z,28
2018-03-28T17:08:37.000Z,28
2018-03-28T17:09:37.000Z,28
2018-03-28T17:11:37.000Z,28
2018-03-28T17:12:37.000Z,28
2018-03-28T17:14:22.000Z,28
2018-03-28T17:15:37.000Z,28
2018-03-28T17:16:37.000Z,28
2018-03-28T17:17:37.000Z,28
2018-03-28T17:18:37.000Z,28.1
2018-03-28T17:19:37.000Z,28.2
2018-03-28T17:21:37.000Z,28.2
2018-03-28T17:22:37.000Z,28.2
2018-03-28T17:24:37.000Z,28.2
2018-03-28T17:25:37.000Z,28.1
2018-03-28T17:27:37.000Z,28.1
2018-03-28T17:28:37.000Z,28.1
2018-03-28T17:30:37.000Z,28.1
2018-03-28T17:31:37.000Z,28.1
2018-03-28T17:33:37.000Z,28.1
2018-03-28T17:35:37.000Z,28
2018-03-28T17:36:37.000Z,28
2018-03-28T17:38:37.000Z,28
2018-03-28T17:40:37.000Z,27.9
2018-03-28T17:41:37.000Z,27.9
2018-03-28T17:43:37.000Z,27.9
2018-03-28T17:44:37.000Z,27.9
2018-03-28T17:46:37.000Z,27.9
2018-03-28T17:47:37.000Z,27.9
2018-03-28T17:49:37.000Z,27.9
2018-03-28T17:50:37.000Z,27.9
2018-03-28T17:52:37.000Z,27.9
2018-03-28T17:54:37.000Z,27.9
2018-03-28T17:55:37.000Z,27.9
2018-03-28T17:57:37.000Z,27.9
2018-03-28T17:59:37.000Z,27.8
2018-03-28T18:01:37.000Z,27.7
2018-03-28T18:02:37.000Z,27.7
2018-03-28T18:03:37.000Z,27.7
2018-03-28T18:05:37.000Z,27.8
2018-03-28T18:07:37.000Z,27.8
2018-03-28T18:08:37.000Z,27.9
2018-03-28T18:09:37.000Z,27.9
2018-03-28T18:11:22.000Z,27.9
2018-03-28T18:12:37.000Z,27.9
2018-03-28T18:13:37.000Z,27.9
2018-03-28T18:14:37.000Z,28
2018-03-28T18:16:37.000Z,28
2018-03-28T18:18:22.000Z,27.9
2018-03-28T18:19:37.000Z,27.9
2018-03-28T18:21:37.000Z,27.8
2018-03-28T18:23:22.000Z,27.8
2018-03-28T18:24:37.000Z,27.8
2018-03-28T18:25:37.000Z,27.8
2018-03-28T18:26:37.000Z,27.9
2018-03-28T18:28:37.000Z,27.9
2018-03-28T18:29:37.000Z,27.9
2018-03-28T18:30:37.000Z,28
2018-03-28T18:32:37.000Z,28
2018-03-28T18:34:37.000Z,27.9
2018-03-28T18:35:37.000Z,27.9
2018-03-28T18:37:37.000Z,27.9
2018-03-28T18:38:37.000Z,27.9
2018-03-28T18:40:37.000Z,27.8
2018-03-28T18:42:37.000Z,27.8
2018-03-28T18:43:37.000Z,27.8
2018-03-28T18:44:37.000Z,27.8
2018-03-28T18:46:37.000Z,27.8
2018-03-28T18:48:36.000Z,27.8
2018-03-28T18:49:36.000Z,27.7
2018-03-28T18:51:36.000Z,27.8
2018-03-28T18:53:36.000Z,27.8
2018-03-28T18:55:21.000Z,27.7
2018-03-28T18:56:36.000Z,27.7
2018-03-28T18:58:36.000Z,27.6
2018-03-28T19:00:36.000Z,27.6
2018-03-28T19:02:36.000Z,27.6
2018-03-28T19:03:36.000Z,27.6
2018-03-28T19:04:36.000Z,27.6
2018-03-28T19:05:36.000Z,27.7
2018-03-28T19:07:36.000Z,27.8
2018-03-28T19:09:36.000Z,27.7
2018-03-28T19:11:36.000Z,27.7
2018-03-28T19:12:36.000Z,27.7
2018-03-28T19:13:36.000Z,27.7
2018-03-28T19:14:36.000Z,27.7
2018-03-28T19:16:36.000Z,27.8
2018-03-28T19:18:36.000Z,27.7
2018-03-28T19:19:36.000Z,27.7
2018-03-28T19:20:36.000Z,27.6
2018-03-28T19:22:36.000Z,27.6
2018-03-28T19:24:36.000Z,27.6
2018-03-28T19:25:36.000Z,27.6
2018-03-28T19:26:36.000Z,27.7
2018-03-28T19:27:36.000Z,27.7
2018-03-28T19:29:36.000Z,27.7
2018-03-28T19:31:36.000Z,27.6
2018-03-28T19:32:36.000Z,27.6
2018-03-28T19:33:36.000Z,27.7
2018-03-28T19:35:36.000Z,27.7
2018-03-28T19:36:36.000Z,27.7
2018-03-28T19:37:36.000Z,27.7
2018-03-28T19:38:36.000Z,27.7
2018-03-28T19:39:36.000Z,27.7
2018-03-28T19:41:21.000Z,27.8
2018-03-28T19:42:36.000Z,27.7
2018-03-28T19:43:36.000Z,27.7
2018-03-28T19:45:36.000Z,27.7
2018-03-28T19:46:36.000Z,27.7
2018-03-28T19:47:36.000Z,27.7
2018-03-28T19:49:36.000Z,27.7
2018-03-28T19:50:36.000Z,27.7
2018-03-28T19:52:36.000Z,27.7
2018-03-28T19:54:36.000Z,27.7
2018-03-28T19:55:36.000Z,27.7
2018-03-28T19:57:21.000Z,27.7
2018-03-28T19:58:36.000Z,27.6
2018-03-28T19:59:36.000Z,27.6
2018-03-28T20:00:36.000Z,27.7
2018-03-28T20:01:36.000Z,27.7
2018-03-28T20:02:36.000Z,27.7
2018-03-28T20:04:36.000Z,27.7
2018-03-28T20:06:36.000Z,27.6
2018-03-28T20:08:36.000Z,27.5
2018-03-28T20:09:36.000Z,27.5
2018-03-28T20:11:36.000Z,27.5
2018-03-28T20:13:36.000Z,27.4
2018-03-28T20:14:36.000Z,27.4
2018-03-28T20:16:36.000Z,27.4
2018-03-28T20:18:36.000Z,27.4
2018-03-28T20:19:36.000Z,27.4
2018-03-28T20:21:36.000Z,27.5
2018-03-28T20:23:36.000Z,27.4
2018-03-28T20:24:36.000Z,27.4
2018-03-28T20:26:36.000Z,27.5
2018-03-28T20:28:36.000Z,27.5
2018-03-28T20:29:36.000Z,27.5
2018-03-28T20:30:36.000Z,27.5
2018-03-28T20:32:36.000Z,27.5
2018-03-28T20:33:36.000Z,27.5
2018-03-28T20:35:21.000Z,27.5
2018-03-28T20:36:36.000Z,27.4
2018-03-28T20:37:36.000Z,27.4
2018-03-28T20:39:36.000Z,27.3
2018-03-28T20:41:36.000Z,27.3
2018-03-28T20:42:36.000Z,27.3